Stations météo

réclame
Mon MeteoGroup
Leuchtturm Kiel, Allemagne (10044): Température de l'air & dewpoint: 20.09.2018 05:00:00 - 26.09.2018 05:00:00 (CEST)Leuchtturm Kiel, Allemagne (10044): Vitesse du vent & gusts: 20.09.2018 05:00:00 - 26.09.2018 05:00:00 (CEST)Leuchtturm Kiel, Allemagne (10044): Direction du vent: 20.09.2018 05:00:00 - 26.09.2018 05:00:00 (CEST)Leuchtturm Kiel, Allemagne (10044): reduced air pressure: 20.09.2018 05:00:00 - 26.09.2018 05:00:00 (CEST)Leuchtturm Kiel, Allemagne (10044): Ensoleillement: 20.09.2018 05:00:00 - 26.09.2018 05:00:00 (CEST)
Date & Time tt [°C] td [°C] ff [km/h] ff [knt] fx [km/h] fx [knt] dd ppp [hPa] sd [min]
26.09.2018 05:00:00 11,2 6,7 43 23 56 31 SW 1030,8 0
26.09.2018 04:00:00 11,1 7,2 44 24 59 32 SW 1031,6 0
26.09.2018 03:00:00 11,0 6,9 46 25 54 29 SW 1032,1 0
26.09.2018 02:00:00 11,3 7,2 46 25 54 29 SW 1032,9 0
26.09.2018 01:00:00 11,4 6,7 42 23 52 28 SW 1033,6 0
26.09.2018 00:00:00 11,6 7,4 38 21 45 24 SW 1034,5 0
25.09.2018 23:00:00 11,8 7,1 39 21 47 26 SW 1034,8 0
25.09.2018 22:00:00 12,0 6,9 39 21 44 24 SW 1034,9 0
25.09.2018 21:00:00 12,2 7,5 31 17 38 20 WSW 1035,5 0
25.09.2018 20:00:00 12,7 7,3 29 15 39 21 WSW 1035,6 0
25.09.2018 19:00:00 13,0 6,8 31 17 39 21 WSW 1035,8 3
25.09.2018 18:00:00 13,3 6,1 30 16 39 21 WSW 1036,0 59
25.09.2018 17:00:00 13,3 6,4 29 16 39 21 W 1036,2 53
25.09.2018 16:00:00 13,6 5,7 32 17 38 21 WSW 1036,3 45
25.09.2018 15:00:00 13,5 4,9 25 13 31 17 W 1036,6 59
25.09.2018 14:00:00 13,1 4,6 22 12 29 15 W 1037,1 56
25.09.2018 13:00:00 12,7 4,0 16 9 25 14 W 1037,3 60
25.09.2018 12:00:00 12,0 3,6 18 10 30 16 W 1037,2 60
25.09.2018 11:00:00 13,1 4,0 23 12 30 16 NW 1036,8 60
25.09.2018 10:00:00 12,1 5,6 22 12 34 19 WNW 1036,1 60
25.09.2018 09:00:00 11,5 4,9 28 15 37 20 NW 1035,4 45
25.09.2018 08:00:00 9,9 4,9 30 16 46 25 NW 1034,8 5
25.09.2018 07:00:00 9,5 5,0 36 19 45 24 NW 1034,4 0
25.09.2018 06:00:00 9,2 5,1 36 20 43 23 NW 1033,8 0
25.09.2018 05:00:00 9,4 5,2 37 20 46 25 NW 1033,3 0
25.09.2018 04:00:00 9,6 5,3 41 22 51 28 NW 1032,8 0
25.09.2018 03:00:00 9,7 4,8 44 24 51 27 NW 1032,3 0
25.09.2018 02:00:00 9,4 4,7 39 21 58 31 NW 1032,0 0
25.09.2018 01:00:00 10,0 5,0 48 26 65 35 NW 1031,6 0
25.09.2018 00:00:00 10,0 4,8 49 27 65 35 NW 1031,0 0
24.09.2018 23:00:00 10,2 5,2 49 26 77 42 NW 1030,2 0
24.09.2018 22:00:00 10,7 5,0 64 34 77 42 NW 1029,5 0
24.09.2018 21:00:00 10,4 5,1 57 31 72 39 NW 1028,7 0
24.09.2018 20:00:00 10,4 4,2 50 27 69 37 WNW 1027,7 5
24.09.2018 19:00:00 10,9 4,5 59 32 74 40 WNW 1026,8 60
24.09.2018 18:00:00 10,4 4,6 52 28 94 51 WNW 1026,6 42
24.09.2018 17:00:00 11,4 3,5 54 29 74 40 WNW 1025,9 51
24.09.2018 16:00:00 11,6 2,7 54 29 78 42 WNW 1025,4 38
24.09.2018 15:00:00 12,3 3,7 54 29 67 36 NW 1025,0 47
24.09.2018 14:00:00 12,0 3,3 41 22 61 33 W 1024,7 48
24.09.2018 13:00:00 12,8 2,5 50 27 67 36 NW 1024,2 33
24.09.2018 12:00:00 12,4 3,3 56 30 74 40 NW 1023,7 48
24.09.2018 11:00:00 12,3 4,0 54 29 72 39 NW 1023,1 59
24.09.2018 10:00:00 12,0 4,3 55 30 66 36 NW 1022,1 59
24.09.2018 09:00:00 10,7 4,4 50 27 64 34 NW 1021,2 18
24.09.2018 08:00:00 10,6 5,5 55 30 73 39 WNW 1020,0 0
24.09.2018 07:00:00 10,3 5,3 51 28 61 33 NW 1019,3 0
24.09.2018 06:00:00 10,3 5,2 48 26 67 36 WNW 1018,4 0
24.09.2018 05:00:00 10,5 5,4 56 30 71 38 WNW 1017,6 0
24.09.2018 04:00:00 10,2 5,1 49 27 68 37 WNW 1016,7 0
24.09.2018 03:00:00 10,3 4,5 51 28 61 33 WNW 1015,9 0
24.09.2018 02:00:00 10,4 5,8 48 26 63 34 WNW 1015,1 0
24.09.2018 01:00:00 10,3 5,3 46 25 57 31 WNW 1014,4 0
24.09.2018 00:00:00 10,6 5,6 49 27 59 32 WNW 1013,4 0
23.09.2018 23:00:00 10,7 6,3 47 26 58 32 NW 1012,7 0
23.09.2018 22:00:00 11,1 6,7 51 28 61 33 NW 1011,5 0
23.09.2018 21:00:00 11,6 6,2 49 27 61 33 NW 1010,5 0
23.09.2018 20:00:00 11,8 5,8 42 23 52 28 WNW 1009,6 0
23.09.2018 19:00:00 12,2 5,7 42 23 51 27 NW 1008,9 0
23.09.2018 18:00:00 12,7 6,4 41 22 49 26 NW 1009,0 0
23.09.2018 17:00:00 12,8 5,9 29 15 36 19 WNW 1009,2 0
23.09.2018 16:00:00 12,6 6,4 20 11 26 14 WNW 1009,3 0
23.09.2018 15:00:00 12,0 5,7 18 10 43 23 WSW 1010,2 0
23.09.2018 14:00:00 12,8 6,9 13 7 24 13 WNW 1010,2 14
23.09.2018 13:00:00 12,7 7,2 19 11 29 16 W 1011,0 35
23.09.2018 12:00:00 12,4 7,2 22 12 36 19 WSW 1011,7 5
23.09.2018 11:00:00 11,8 8,0 27 15 39 21 WSW 1011,9 0
23.09.2018 10:00:00 11,4 8,3 34 18 39 21 WSW 1012,0 44
23.09.2018 09:00:00 10,6 9,1 29 15 35 19 SW 1011,9 2
23.09.2018 08:00:00 10,5 8,0 24 13 51 27 WSW 1012,0 0
23.09.2018 07:00:00 11,0 9,1 37 20 47 25 SW 1011,6 0
23.09.2018 06:00:00 10,6 8,4 41 22 50 27 SW 1011,9 0
23.09.2018 05:00:00 10,4 8,0 41 22 46 25 SW 1012,3 0
23.09.2018 04:00:00 10,4 8,3 39 21 45 25 SW 1012,7 0
23.09.2018 03:00:00 10,7 7,2 38 21 46 25 SW 1012,9 0
23.09.2018 02:00:00 10,9 7,1 39 21 47 26 SW 1012,9 0
23.09.2018 01:00:00 11,2 7,4 36 20 44 24 WSW 1013,0 0
23.09.2018 00:00:00 11,4 6,3 34 19 43 23 WSW 1013,0 0
22.09.2018 23:00:00 11,5 6,6 34 18 44 24 WSW 1013,0 0
22.09.2018 22:00:00 11,8 6,4 36 19 47 26 WSW 1012,9 0
22.09.2018 21:00:00 12,7 6,5 37 20 54 29 WSW 1012,6 0
22.09.2018 20:00:00 13,1 6,9 49 27 63 34 WSW 1012,1 0
22.09.2018 19:00:00 14,0 6,6 43 23 64 34 W 1012,0 40
22.09.2018 18:00:00 14,4 5,8 56 30 67 36 W 1012,0 47
22.09.2018 17:00:00 14,5 5,2 49 27 63 34 WSW 1012,0 52
22.09.2018 16:00:00 14,6 7,4 44 24 72 39 WSW 1012,4 38
22.09.2018 15:00:00 14,5 5,7 59 32 82 45 W 1011,8 37
22.09.2018 14:00:00 15,1 4,8 59 32 77 42 W 1011,4 42
22.09.2018 13:00:00 13,2 8,8 49 26 80 43 WSW 1011,8 23
22.09.2018 12:00:00 12,7 9,8 60 32 72 39 SW 1011,9 43
22.09.2018 11:00:00 12,2 9,9 40 22 63 34 WSW 1012,3 19
22.09.2018 10:00:00 12,3 8,6 44 24 60 33 SW 1011,8 50
22.09.2018 09:00:00 11,8 8,8 47 26 55 30 SW 1011,5 60
22.09.2018 08:00:00 11,1 8,4 41 22 50 27 SW 1011,1 17
22.09.2018 07:00:00 11,2 8,5 37 20 51 28 SW 1010,7 0
22.09.2018 06:00:00 11,0 9,5 44 24 53 29 SW 1010,0 0
22.09.2018 05:00:00 11,1 9,1 43 23 64 35 SW 1009,2 0
22.09.2018 04:00:00 10,9 9,3 56 30 74 40 SW 1008,4 0
22.09.2018 03:00:00 10,3 8,7 51 28 79 42 SW 1007,6 0
22.09.2018 02:00:00 10,1 8,0 64 35 77 41 SW 1006,8 0
22.09.2018 01:00:00 10,6 8,1 62 33 82 45 SW 1006,4 0
22.09.2018 00:00:00 10,7 7,7 63 34 92 50 SW 1005,9 0
21.09.2018 23:00:00 11,0 6,9 72 39 85 46 SW 1004,9 0
21.09.2018 22:00:00 11,2 6,5 62 34 93 50 SW 1004,4 0
21.09.2018 21:00:00 12,0 5,8 80 43 96 52 WSW 1003,8 0
21.09.2018 20:00:00 11,9 7,1 51 28 91 49 WSW 1003,6 0
21.09.2018 19:00:00 11,7 7,0 74 40 100 54 WSW 1002,7 20
21.09.2018 18:00:00 12,3 8,2 68 37 96 52 WSW 1002,2 17
21.09.2018 17:00:00 14,0 8,6 58 31 81 44 W 1001,4 11
21.09.2018 16:00:00 15,3 8,5 53 29 80 43 WSW 1000,9 0
21.09.2018 15:00:00 15,3 10,8 47 26 69 38 WSW 1000,7 0
21.09.2018 14:00:00 15,4 11,9 53 29 69 37 WSW 1000,0 0
21.09.2018 13:00:00 15,5 12,4 66 35 92 50 WSW 998,7 0
21.09.2018 12:00:00 21,1 13,1 74 40 94 51 SW 997,0 5
21.09.2018 11:00:00 22,1 12,2 65 35 86 46 SSW 996,5 0
21.09.2018 10:00:00 21,4 12,7 67 36 81 44 SSW 997,3 17
21.09.2018 09:00:00 19,7 12,0 55 30 66 36 S 998,3 19
21.09.2018 08:00:00 19,5 11,6 51 28 61 33 S 999,6 19
21.09.2018 07:00:00 19,2 11,8 48 26 58 31 S 1001,0 0
21.09.2018 06:00:00 18,8 11,3 44 24 49 27 S 1002,5 0
21.09.2018 05:00:00 18,7 11,6 40 22 46 25 S 1003,9 0
21.09.2018 04:00:00 18,6 11,8 35 19 40 21 S 1005,0 0
21.09.2018 03:00:00 19,0 12,1 36 20 44 24 S 1005,9 0
21.09.2018 02:00:00 19,2 12,2 35 19 40 21 S 1007,1 0
21.09.2018 01:00:00 18,4 12,9 26 14 32 17 S 1008,2 0
21.09.2018 00:00:00 19,1 12,7 27 14 30 16 S 1009,1 0
20.09.2018 23:00:00 19,6 13,1 25 13 26 14 S 1010,1 0
20.09.2018 22:00:00 20,3 13,5 23 13 27 14 S 1010,8 0
20.09.2018 21:00:00 20,8 13,9 22 12 28 15 SW 1011,3 0
20.09.2018 20:00:00 21,2 14,1 27 15 31 17 SW 1011,5 0
20.09.2018 19:00:00 21,5 13,9 29 16 38 20 SW 1011,8 0
20.09.2018 18:00:00 21,7 14,1 31 17 43 23 SW 1012,0 0
20.09.2018 17:00:00 21,7 13,9 33 18 45 24 SW 1012,2 13
20.09.2018 16:00:00 21,4 13,8 31 17 56 30 WSW 1012,7 12
20.09.2018 15:00:00 20,5 13,8 44 24 63 34 SW 1013,1 0
20.09.2018 14:00:00 20,1 13,6 42 23 60 33 SW 1013,2 14
20.09.2018 13:00:00 20,1 14,0 45 25 54 29 SW 1013,3 50
20.09.2018 12:00:00 19,2 14,2 45 24 56 30 SW 1013,7 38
20.09.2018 11:00:00 19,0 14,0 48 26 59 32 SW 1014,0 56
20.09.2018 10:00:00 18,0 13,9 40 22 48 26 SSW 1013,8 46
20.09.2018 09:00:00 17,5 13,7 40 22 46 25 SSW 1013,8 8
20.09.2018 08:00:00 17,2 13,8 33 18 44 24 SW 1014,0 10
20.09.2018 07:00:00 17,7 14,0 39 21 45 25 SW 1013,9 0
20.09.2018 06:00:00 17,9 13,7 39 21 44 24 SW 1013,8 0
20.09.2018 05:00:00 18,1 13,5 36 20 53 28 SW 1013,8 0

tt = Température de l'air
td = dewpoint
ff = Vitesse du vent
fx = gusts
dd = Direction du vent
ppp = reduced air pressure
sd = Ensoleillement

stations d'obs. à proximité